sensor_id;sensor_type;location;lat;lon;timestamp;P1;durP1;ratioP1;P2;durP2;ratioP2
54795;SDS011;40693;43.884;20.340;2023-05-29T00:00:20;15.32;;;12.18;;
54795;SDS011;40693;43.884;20.340;2023-05-29T00:02:46;15.32;;;12.30;;
54795;SDS011;40693;43.884;20.340;2023-05-29T00:05:12;16.40;;;11.95;;
54795;SDS011;40693;43.884;20.340;2023-05-29T00:07:39;13.70;;;11.20;;
54795;SDS011;40693;43.884;20.340;2023-05-29T00:10:05;15.98;;;11.48;;
54795;SDS011;40693;43.884;20.340;2023-05-29T00:12:32;15.25;;;11.75;;
54795;SDS011;40693;43.884;20.340;2023-05-29T00:14:58;15.68;;;11.32;;
54795;SDS011;40693;43.884;20.340;2023-05-29T00:17:24;15.13;;;11.75;;
54795;SDS011;40693;43.884;20.340;2023-05-29T00:19:50;15.80;;;11.63;;
54795;SDS011;40693;43.884;20.340;2023-05-29T00:24:42;11.98;;;8.73;;
54795;SDS011;40693;43.884;20.340;2023-05-29T00:27:09;12.02;;;8.88;;
54795;SDS011;40693;43.884;20.340;2023-05-29T00:29:35;13.77;;;8.80;;
54795;SDS011;40693;43.884;20.340;2023-05-29T00:32:02;14.75;;;11.48;;
54795;SDS011;40693;43.884;20.340;2023-05-29T00:34:29;14.38;;;10.77;;
54795;SDS011;40693;43.884;20.340;2023-05-29T00:36:55;12.45;;;9.80;;
54795;SDS011;40693;43.884;20.340;2023-05-29T00:39:20;13.07;;;11.07;;
54795;SDS011;40693;43.884;20.340;2023-05-29T00:41:47;13.20;;;10.23;;
54795;SDS011;40693;43.884;20.340;2023-05-29T00:44:19;12.68;;;10.50;;
54795;SDS011;40693;43.884;20.340;2023-05-29T00:46:46;14.07;;;10.85;;
54795;SDS011;40693;43.884;20.340;2023-05-29T00:49:13;13.48;;;10.05;;
54795;SDS011;40693;43.884;20.340;2023-05-29T00:51:39;14.63;;;9.82;;
54795;SDS011;40693;43.884;20.340;2023-05-29T00:54:07;15.05;;;10.50;;
54795;SDS011;40693;43.884;20.340;2023-05-29T00:56:38;13.63;;;10.13;;
54795;SDS011;40693;43.884;20.340;2023-05-29T00:59:04;12.05;;;9.48;;
54795;SDS011;40693;43.884;20.340;2023-05-29T01:01:30;12.48;;;9.55;;
54795;SDS011;40693;43.884;20.340;2023-05-29T01:03:57;12.85;;;9.57;;
54795;SDS011;40693;43.884;20.340;2023-05-29T01:06:26;14.73;;;9.80;;
54795;SDS011;40693;43.884;20.340;2023-05-29T01:08:51;14.32;;;10.32;;
54795;SDS011;40693;43.884;20.340;2023-05-29T01:13:52;13.15;;;10.23;;
54795;SDS011;40693;43.884;20.340;2023-05-29T01:16:25;13.65;;;9.25;;
54795;SDS011;40693;43.884;20.340;2023-05-29T01:22:07;15.68;;;10.02;;
54795;SDS011;40693;43.884;20.340;2023-05-29T01:27:19;17.05;;;11.95;;
54795;SDS011;40693;43.884;20.340;2023-05-29T01:29:50;22.10;;;14.68;;
54795;SDS011;40693;43.884;20.340;2023-05-29T01:34:46;27.23;;;14.20;;
54795;SDS011;40693;43.884;20.340;2023-05-29T01:37:11;30.35;;;16.17;;
54795;SDS011;40693;43.884;20.340;2023-05-29T01:39:38;18.10;;;12.05;;
54795;SDS011;40693;43.884;20.340;2023-05-29T01:42:04;16.85;;;10.65;;
54795;SDS011;40693;43.884;20.340;2023-05-29T01:44:31;15.77;;;10.88;;
54795;SDS011;40693;43.884;20.340;2023-05-29T01:46:57;19.67;;;12.38;;
54795;SDS011;40693;43.884;20.340;2023-05-29T01:49:24;19.05;;;12.90;;
54795;SDS011;40693;43.884;20.340;2023-05-29T01:51:51;28.05;;;14.20;;
54795;SDS011;40693;43.884;20.340;2023-05-29T01:54:16;25.63;;;14.18;;
54795;SDS011;40693;43.884;20.340;2023-05-29T01:56:42;21.27;;;13.70;;
54795;SDS011;40693;43.884;20.340;2023-05-29T01:59:09;25.58;;;14.00;;
54795;SDS011;40693;43.884;20.340;2023-05-29T02:01:38;29.80;;;18.23;;
54795;SDS011;40693;43.884;20.340;2023-05-29T02:04:04;27.55;;;15.23;;
54795;SDS011;40693;43.884;20.340;2023-05-29T02:06:30;48.13;;;16.42;;
54795;SDS011;40693;43.884;20.340;2023-05-29T02:08:58;26.88;;;14.55;;
54795;SDS011;40693;43.884;20.340;2023-05-29T02:11:23;25.92;;;17.70;;
54795;SDS011;40693;43.884;20.340;2023-05-29T02:13:50;44.13;;;16.73;;
54795;SDS011;40693;43.884;20.340;2023-05-29T02:16:17;34.85;;;16.33;;
54795;SDS011;40693;43.884;20.340;2023-05-29T02:18:45;106.55;;;21.17;;
54795;SDS011;40693;43.884;20.340;2023-05-29T02:21:11;32.42;;;19.13;;
54795;SDS011;40693;43.884;20.340;2023-05-29T02:23:38;29.58;;;20.25;;
54795;SDS011;40693;43.884;20.340;2023-05-29T02:26:04;22.33;;;17.15;;
54795;SDS011;40693;43.884;20.340;2023-05-29T02:30:55;18.20;;;13.23;;
54795;SDS011;40693;43.884;20.340;2023-05-29T02:35:47;20.70;;;12.55;;
54795;SDS011;40693;43.884;20.340;2023-05-29T02:38:12;20.55;;;12.50;;
54795;SDS011;40693;43.884;20.340;2023-05-29T02:40:38;17.95;;;12.55;;
54795;SDS011;40693;43.884;20.340;2023-05-29T02:43:04;16.60;;;12.07;;
54795;SDS011;40693;43.884;20.340;2023-05-29T02:45:31;22.10;;;13.70;;
54795;SDS011;40693;43.884;20.340;2023-05-29T02:47:56;54.05;;;19.27;;
54795;SDS011;40693;43.884;20.340;2023-05-29T02:50:22;52.05;;;16.55;;
54795;SDS011;40693;43.884;20.340;2023-05-29T02:52:48;31.38;;;15.55;;
54795;SDS011;40693;43.884;20.340;2023-05-29T02:55:13;50.40;;;16.55;;
54795;SDS011;40693;43.884;20.340;2023-05-29T02:57:40;29.05;;;16.92;;
54795;SDS011;40693;43.884;20.340;2023-05-29T03:02:33;24.45;;;14.35;;
54795;SDS011;40693;43.884;20.340;2023-05-29T03:07:26;33.95;;;14.57;;
54795;SDS011;40693;43.884;20.340;2023-05-29T03:09:51;25.75;;;17.70;;
54795;SDS011;40693;43.884;20.340;2023-05-29T03:12:17;20.67;;;16.08;;
54795;SDS011;40693;43.884;20.340;2023-05-29T03:14:44;23.70;;;14.43;;
54795;SDS011;40693;43.884;20.340;2023-05-29T03:17:10;19.67;;;12.60;;
54795;SDS011;40693;43.884;20.340;2023-05-29T03:19:35;20.45;;;12.32;;
54795;SDS011;40693;43.884;20.340;2023-05-29T03:22:02;17.85;;;12.80;;
54795;SDS011;40693;43.884;20.340;2023-05-29T03:24:28;16.17;;;11.48;;
54795;SDS011;40693;43.884;20.340;2023-05-29T03:26:54;14.82;;;10.93;;
54795;SDS011;40693;43.884;20.340;2023-05-29T03:29:21;17.98;;;11.50;;
54795;SDS011;40693;43.884;20.340;2023-05-29T03:31:46;15.27;;;10.43;;
54795;SDS011;40693;43.884;20.340;2023-05-29T03:36:38;14.00;;;10.02;;
54795;SDS011;40693;43.884;20.340;2023-05-29T03:39:04;14.10;;;10.75;;
54795;SDS011;40693;43.884;20.340;2023-05-29T03:41:31;17.88;;;9.52;;
54795;SDS011;40693;43.884;20.340;2023-05-29T03:43:57;14.88;;;11.35;;
54795;SDS011;40693;43.884;20.340;2023-05-29T03:46:22;13.00;;;9.40;;
54795;SDS011;40693;43.884;20.340;2023-05-29T03:48:48;13.73;;;10.07;;
54795;SDS011;40693;43.884;20.340;2023-05-29T03:51:14;11.20;;;9.10;;
54795;SDS011;40693;43.884;20.340;2023-05-29T03:56:05;15.43;;;10.13;;
54795;SDS011;40693;43.884;20.340;2023-05-29T03:58:31;14.88;;;10.18;;
54795;SDS011;40693;43.884;20.340;2023-05-29T04:00:57;15.38;;;10.88;;
54795;SDS011;40693;43.884;20.340;2023-05-29T04:03:22;11.60;;;9.43;;
54795;SDS011;40693;43.884;20.340;2023-05-29T04:05:48;18.25;;;11.60;;
54795;SDS011;40693;43.884;20.340;2023-05-29T04:08:14;14.38;;;10.93;;
54795;SDS011;40693;43.884;20.340;2023-05-29T04:10:40;15.90;;;9.38;;
54795;SDS011;40693;43.884;20.340;2023-05-29T04:13:06;15.25;;;10.65;;
54795;SDS011;40693;43.884;20.340;2023-05-29T04:15:32;14.60;;;10.75;;
54795;SDS011;40693;43.884;20.340;2023-05-29T04:18:01;14.50;;;10.77;;
54795;SDS011;40693;43.884;20.340;2023-05-29T04:20:26;14.50;;;10.77;;
54795;SDS011;40693;43.884;20.340;2023-05-29T04:22:52;19.77;;;12.60;;
54795;SDS011;40693;43.884;20.340;2023-05-29T04:25:18;14.30;;;10.85;;
54795;SDS011;40693;43.884;20.340;2023-05-29T04:27:46;16.27;;;12.15;;
54795;SDS011;40693;43.884;20.340;2023-05-29T04:30:14;15.02;;;11.65;;
54795;SDS011;40693;43.884;20.340;2023-05-29T04:32:41;17.58;;;11.75;;
54795;SDS011;40693;43.884;20.340;2023-05-29T04:35:07;17.73;;;11.23;;
54795;SDS011;40693;43.884;20.340;2023-05-29T04:37:34;15.98;;;11.38;;
54795;SDS011;40693;43.884;20.340;2023-05-29T04:40:04;15.43;;;11.55;;
54795;SDS011;40693;43.884;20.340;2023-05-29T04:42:42;17.10;;;11.27;;
54795;SDS011;40693;43.884;20.340;2023-05-29T04:45:10;16.85;;;12.25;;
54795;SDS011;40693;43.884;20.340;2023-05-29T04:47:36;14.07;;;10.75;;
54795;SDS011;40693;43.884;20.340;2023-05-29T04:50:11;18.47;;;11.80;;
54795;SDS011;40693;43.884;20.340;2023-05-29T04:52:37;15.38;;;10.52;;
54795;SDS011;40693;43.884;20.340;2023-05-29T04:55:03;13.68;;;10.13;;
54795;SDS011;40693;43.884;20.340;2023-05-29T04:57:30;17.05;;;11.60;;
54795;SDS011;40693;43.884;20.340;2023-05-29T04:59:56;15.65;;;11.35;;
54795;SDS011;40693;43.884;20.340;2023-05-29T05:02:21;19.33;;;10.98;;
54795;SDS011;40693;43.884;20.340;2023-05-29T05:04:47;16.80;;;11.98;;
54795;SDS011;40693;43.884;20.340;2023-05-29T05:07:13;18.25;;;11.32;;
54795;SDS011;40693;43.884;20.340;2023-05-29T05:09:41;16.70;;;10.98;;
54795;SDS011;40693;43.884;20.340;2023-05-29T05:12:07;18.17;;;11.20;;
54795;SDS011;40693;43.884;20.340;2023-05-29T05:14:34;17.63;;;13.48;;
54795;SDS011;40693;43.884;20.340;2023-05-29T05:17:00;19.55;;;12.68;;
54795;SDS011;40693;43.884;20.340;2023-05-29T05:19:25;20.17;;;13.10;;
54795;SDS011;40693;43.884;20.340;2023-05-29T05:21:51;16.85;;;12.30;;
54795;SDS011;40693;43.884;20.340;2023-05-29T05:24:17;19.30;;;12.23;;
54795;SDS011;40693;43.884;20.340;2023-05-29T05:26:42;16.00;;;12.20;;
54795;SDS011;40693;43.884;20.340;2023-05-29T05:29:08;18.88;;;13.35;;
54795;SDS011;40693;43.884;20.340;2023-05-29T05:31:34;14.98;;;11.85;;
54795;SDS011;40693;43.884;20.340;2023-05-29T05:34:00;17.75;;;13.27;;
54795;SDS011;40693;43.884;20.340;2023-05-29T05:36:26;17.23;;;12.85;;
54795;SDS011;40693;43.884;20.340;2023-05-29T05:38:51;20.45;;;13.27;;
54795;SDS011;40693;43.884;20.340;2023-05-29T05:41:17;20.63;;;12.77;;
54795;SDS011;40693;43.884;20.340;2023-05-29T05:43:43;20.10;;;13.30;;
54795;SDS011;40693;43.884;20.340;2023-05-29T05:46:08;15.57;;;12.68;;
54795;SDS011;40693;43.884;20.340;2023-05-29T05:48:34;15.90;;;11.52;;
54795;SDS011;40693;43.884;20.340;2023-05-29T05:51:00;18.75;;;13.48;;
54795;SDS011;40693;43.884;20.340;2023-05-29T05:53:25;18.63;;;13.50;;
54795;SDS011;40693;43.884;20.340;2023-05-29T05:55:51;19.92;;;12.48;;
54795;SDS011;40693;43.884;20.340;2023-05-29T05:58:17;16.67;;;12.93;;
54795;SDS011;40693;43.884;20.340;2023-05-29T06:00:42;22.10;;;12.57;;
54795;SDS011;40693;43.884;20.340;2023-05-29T06:03:08;18.95;;;11.55;;
54795;SDS011;40693;43.884;20.340;2023-05-29T06:05:34;21.98;;;14.55;;
54795;SDS011;40693;43.884;20.340;2023-05-29T06:08:01;19.85;;;11.38;;
54795;SDS011;40693;43.884;20.340;2023-05-29T06:10:27;19.55;;;13.25;;
54795;SDS011;40693;43.884;20.340;2023-05-29T06:12:52;16.42;;;12.25;;
54795;SDS011;40693;43.884;20.340;2023-05-29T06:15:19;18.15;;;12.25;;
54795;SDS011;40693;43.884;20.340;2023-05-29T06:17:44;19.25;;;12.85;;
54795;SDS011;40693;43.884;20.340;2023-05-29T06:20:10;20.98;;;13.07;;
54795;SDS011;40693;43.884;20.340;2023-05-29T06:22:36;16.63;;;13.23;;
54795;SDS011;40693;43.884;20.340;2023-05-29T06:25:02;17.50;;;12.43;;
54795;SDS011;40693;43.884;20.340;2023-05-29T06:27:28;18.33;;;14.38;;
54795;SDS011;40693;43.884;20.340;2023-05-29T06:29:55;19.10;;;13.18;;
54795;SDS011;40693;43.884;20.340;2023-05-29T06:32:20;24.70;;;15.52;;
54795;SDS011;40693;43.884;20.340;2023-05-29T06:34:47;20.95;;;14.25;;
54795;SDS011;40693;43.884;20.340;2023-05-29T06:37:12;26.73;;;15.38;;
54795;SDS011;40693;43.884;20.340;2023-05-29T06:39:38;20.15;;;13.38;;
54795;SDS011;40693;43.884;20.340;2023-05-29T06:42:07;22.95;;;14.52;;
54795;SDS011;40693;43.884;20.340;2023-05-29T06:44:33;23.85;;;14.90;;
54795;SDS011;40693;43.884;20.340;2023-05-29T06:46:59;24.35;;;16.65;;
54795;SDS011;40693;43.884;20.340;2023-05-29T06:49:26;23.63;;;14.75;;
54795;SDS011;40693;43.884;20.340;2023-05-29T06:51:54;20.70;;;15.68;;
54795;SDS011;40693;43.884;20.340;2023-05-29T06:54:20;18.95;;;13.75;;
54795;SDS011;40693;43.884;20.340;2023-05-29T06:56:46;24.45;;;15.05;;
54795;SDS011;40693;43.884;20.340;2023-05-29T06:59:11;22.23;;;14.40;;
54795;SDS011;40693;43.884;20.340;2023-05-29T07:01:37;19.38;;;14.40;;
54795;SDS011;40693;43.884;20.340;2023-05-29T07:04:04;18.27;;;14.30;;
54795;SDS011;40693;43.884;20.340;2023-05-29T07:06:30;20.50;;;14.02;;
54795;SDS011;40693;43.884;20.340;2023-05-29T07:08:55;20.45;;;14.43;;
54795;SDS011;40693;43.884;20.340;2023-05-29T07:11:21;21.83;;;15.55;;
54795;SDS011;40693;43.884;20.340;2023-05-29T07:13:47;23.05;;;15.48;;
54795;SDS011;40693;43.884;20.340;2023-05-29T07:16:12;21.40;;;14.85;;
54795;SDS011;40693;43.884;20.340;2023-05-29T07:18:38;21.58;;;15.00;;
54795;SDS011;40693;43.884;20.340;2023-05-29T07:21:04;20.38;;;13.05;;
54795;SDS011;40693;43.884;20.340;2023-05-29T07:23:31;22.10;;;15.13;;
54795;SDS011;40693;43.884;20.340;2023-05-29T07:25:56;24.45;;;16.00;;
54795;SDS011;40693;43.884;20.340;2023-05-29T07:28:22;19.60;;;14.85;;
54795;SDS011;40693;43.884;20.340;2023-05-29T07:30:48;16.33;;;13.48;;
54795;SDS011;40693;43.884;20.340;2023-05-29T07:33:14;18.45;;;12.65;;
54795;SDS011;40693;43.884;20.340;2023-05-29T07:35:40;17.75;;;12.63;;
54795;SDS011;40693;43.884;20.340;2023-05-29T07:38:05;13.30;;;10.90;;
54795;SDS011;40693;43.884;20.340;2023-05-29T07:40:31;16.85;;;12.07;;
54795;SDS011;40693;43.884;20.340;2023-05-29T07:42:57;15.82;;;11.30;;
54795;SDS011;40693;43.884;20.340;2023-05-29T07:45:22;18.02;;;11.63;;
54795;SDS011;40693;43.884;20.340;2023-05-29T07:47:48;18.50;;;11.85;;
54795;SDS011;40693;43.884;20.340;2023-05-29T07:50:14;15.15;;;12.45;;
54795;SDS011;40693;43.884;20.340;2023-05-29T07:52:41;14.13;;;12.02;;
54795;SDS011;40693;43.884;20.340;2023-05-29T07:55:08;14.77;;;11.52;;
54795;SDS011;40693;43.884;20.340;2023-05-29T07:57:33;14.50;;;11.27;;
54795;SDS011;40693;43.884;20.340;2023-05-29T08:00:00;16.98;;;11.32;;
54795;SDS011;40693;43.884;20.340;2023-05-29T08:02:33;13.90;;;11.82;;
54795;SDS011;40693;43.884;20.340;2023-05-29T08:04:59;14.68;;;11.52;;
54795;SDS011;40693;43.884;20.340;2023-05-29T08:07:25;17.60;;;11.25;;
54795;SDS011;40693;43.884;20.340;2023-05-29T08:09:54;14.45;;;11.15;;
54795;SDS011;40693;43.884;20.340;2023-05-29T08:14:49;9.17;;;7.50;;
54795;SDS011;40693;43.884;20.340;2023-05-29T08:17:14;13.20;;;8.80;;
54795;SDS011;40693;43.884;20.340;2023-05-29T08:19:40;11.57;;;8.10;;
54795;SDS011;40693;43.884;20.340;2023-05-29T08:22:06;11.95;;;8.20;;
54795;SDS011;40693;43.884;20.340;2023-05-29T08:24:31;15.75;;;10.18;;
54795;SDS011;40693;43.884;20.340;2023-05-29T08:26:57;9.98;;;8.18;;
54795;SDS011;40693;43.884;20.340;2023-05-29T08:29:23;12.18;;;9.07;;
54795;SDS011;40693;43.884;20.340;2023-05-29T08:31:49;11.88;;;9.40;;
54795;SDS011;40693;43.884;20.340;2023-05-29T08:34:14;10.32;;;8.30;;
54795;SDS011;40693;43.884;20.340;2023-05-29T08:36:40;12.32;;;9.10;;
54795;SDS011;40693;43.884;20.340;2023-05-29T08:39:06;16.00;;;9.57;;
54795;SDS011;40693;43.884;20.340;2023-05-29T08:41:51;11.20;;;9.07;;
54795;SDS011;40693;43.884;20.340;2023-05-29T08:44:26;13.25;;;8.48;;
54795;SDS011;40693;43.884;20.340;2023-05-29T08:46:55;17.65;;;9.60;;
54795;SDS011;40693;43.884;20.340;2023-05-29T08:49:22;9.10;;;7.68;;
54795;SDS011;40693;43.884;20.340;2023-05-29T08:52:02;9.00;;;8.02;;
54795;SDS011;40693;43.884;20.340;2023-05-29T08:54:40;8.25;;;6.40;;
54795;SDS011;40693;43.884;20.340;2023-05-29T08:57:06;8.73;;;5.50;;
54795;SDS011;40693;43.884;20.340;2023-05-29T08:59:32;8.77;;;6.10;;
54795;SDS011;40693;43.884;20.340;2023-05-29T09:01:58;7.97;;;5.70;;
54795;SDS011;40693;43.884;20.340;2023-05-29T09:04:24;7.50;;;5.95;;
54795;SDS011;40693;43.884;20.340;2023-05-29T09:06:50;13.43;;;7.18;;
54795;SDS011;40693;43.884;20.340;2023-05-29T09:09:17;8.75;;;6.63;;
54795;SDS011;40693;43.884;20.340;2023-05-29T09:11:43;9.82;;;6.30;;
54795;SDS011;40693;43.884;20.340;2023-05-29T09:14:55;10.55;;;7.00;;
54795;SDS011;40693;43.884;20.340;2023-05-29T09:17:00;10.07;;;6.68;;
54795;SDS011;40693;43.884;20.340;2023-05-29T09:19:27;6.82;;;5.75;;
54795;SDS011;40693;43.884;20.340;2023-05-29T09:21:59;11.27;;;8.10;;
54795;SDS011;40693;43.884;20.340;2023-05-29T09:24:29;9.27;;;6.50;;
54795;SDS011;40693;43.884;20.340;2023-05-29T09:26:58;10.75;;;6.93;;
54795;SDS011;40693;43.884;20.340;2023-05-29T09:29:25;9.63;;;7.18;;
54795;SDS011;40693;43.884;20.340;2023-05-29T09:32:15;7.00;;;5.85;;
54795;SDS011;40693;43.884;20.340;2023-05-29T09:34:42;8.27;;;6.97;;
54795;SDS011;40693;43.884;20.340;2023-05-29T09:37:10;12.60;;;6.38;;
54795;SDS011;40693;43.884;20.340;2023-05-29T09:39:46;8.48;;;6.80;;
54795;SDS011;40693;43.884;20.340;2023-05-29T09:42:16;10.30;;;5.90;;
54795;SDS011;40693;43.884;20.340;2023-05-29T09:44:44;8.07;;;6.32;;
54795;SDS011;40693;43.884;20.340;2023-05-29T09:47:17;8.02;;;5.82;;
54795;SDS011;40693;43.884;20.340;2023-05-29T09:49:44;7.18;;;5.15;;
54795;SDS011;40693;43.884;20.340;2023-05-29T09:52:11;8.60;;;5.72;;
54795;SDS011;40693;43.884;20.340;2023-05-29T09:54:43;7.75;;;5.57;;
54795;SDS011;40693;43.884;20.340;2023-05-29T09:57:16;8.45;;;5.63;;
54795;SDS011;40693;43.884;20.340;2023-05-29T09:59:45;10.38;;;5.35;;
54795;SDS011;40693;43.884;20.340;2023-05-29T10:02:16;7.53;;;5.28;;
54795;SDS011;40693;43.884;20.340;2023-05-29T10:04:43;10.35;;;5.22;;
54795;SDS011;40693;43.884;20.340;2023-05-29T10:07:27;9.32;;;5.18;;
54795;SDS011;40693;43.884;20.340;2023-05-29T10:10:01;6.22;;;5.57;;
54795;SDS011;40693;43.884;20.340;2023-05-29T10:12:31;6.50;;;5.63;;
54795;SDS011;40693;43.884;20.340;2023-05-29T10:14:59;8.23;;;6.78;;
54795;SDS011;40693;43.884;20.340;2023-05-29T10:17:28;7.03;;;5.88;;
54795;SDS011;40693;43.884;20.340;2023-05-29T10:19:58;10.32;;;5.35;;
54795;SDS011;40693;43.884;20.340;2023-05-29T10:22:27;6.32;;;5.32;;
54795;SDS011;40693;43.884;20.340;2023-05-29T10:24:56;6.55;;;5.07;;
54795;SDS011;40693;43.884;20.340;2023-05-29T10:27:22;7.13;;;5.10;;
54795;SDS011;40693;43.884;20.340;2023-05-29T10:29:50;6.57;;;4.68;;
54795;SDS011;40693;43.884;20.340;2023-05-29T10:35:17;6.18;;;5.15;;
54795;SDS011;40693;43.884;20.340;2023-05-29T10:38:09;5.50;;;4.80;;
54795;SDS011;40693;43.884;20.340;2023-05-29T10:40:38;5.25;;;4.75;;
54795;SDS011;40693;43.884;20.340;2023-05-29T10:43:03;7.25;;;5.00;;
54795;SDS011;40693;43.884;20.340;2023-05-29T10:50:37;6.55;;;4.57;;
54795;SDS011;40693;43.884;20.340;2023-05-29T10:53:25;7.00;;;5.50;;
54795;SDS011;40693;43.884;20.340;2023-05-29T10:55:55;7.50;;;5.20;;
54795;SDS011;40693;43.884;20.340;2023-05-29T10:58:24;7.50;;;5.43;;
54795;SDS011;40693;43.884;20.340;2023-05-29T11:00:52;8.10;;;6.03;;
54795;SDS011;40693;43.884;20.340;2023-05-29T11:03:20;8.18;;;6.15;;
54795;SDS011;40693;43.884;20.340;2023-05-29T11:06:03;6.15;;;5.55;;
54795;SDS011;40693;43.884;20.340;2023-05-29T11:13:55;8.32;;;5.45;;
54795;SDS011;40693;43.884;20.340;2023-05-29T11:18:54;6.70;;;4.88;;
54795;SDS011;40693;43.884;20.340;2023-05-29T11:24:07;6.30;;;4.57;;
54795;SDS011;40693;43.884;20.340;2023-05-29T11:26:40;7.43;;;5.43;;
54795;SDS011;40693;43.884;20.340;2023-05-29T11:29:11;6.57;;;4.68;;
54795;SDS011;40693;43.884;20.340;2023-05-29T11:31:38;6.75;;;4.85;;
54795;SDS011;40693;43.884;20.340;2023-05-29T11:34:05;6.97;;;5.40;;
54795;SDS011;40693;43.884;20.340;2023-05-29T11:36:34;6.65;;;5.10;;
54795;SDS011;40693;43.884;20.340;2023-05-29T11:39:02;8.65;;;6.53;;
54795;SDS011;40693;43.884;20.340;2023-05-29T11:41:29;7.90;;;6.07;;
54795;SDS011;40693;43.884;20.340;2023-05-29T11:44:01;7.30;;;5.90;;
54795;SDS011;40693;43.884;20.340;2023-05-29T11:46:31;5.22;;;4.53;;
54795;SDS011;40693;43.884;20.340;2023-05-29T11:48:59;5.80;;;4.63;;
54795;SDS011;40693;43.884;20.340;2023-05-29T11:51:26;6.15;;;5.55;;
54795;SDS011;40693;43.884;20.340;2023-05-29T11:53:52;7.35;;;5.22;;
54795;SDS011;40693;43.884;20.340;2023-05-29T11:56:29;7.03;;;5.43;;
54795;SDS011;40693;43.884;20.340;2023-05-29T11:58:56;5.80;;;4.82;;
54795;SDS011;40693;43.884;20.340;2023-05-29T12:01:25;9.02;;;5.50;;
54795;SDS011;40693;43.884;20.340;2023-05-29T12:03:52;8.48;;;5.90;;
54795;SDS011;40693;43.884;20.340;2023-05-29T12:06:34;7.70;;;5.22;;
54795;SDS011;40693;43.884;20.340;2023-05-29T12:09:02;6.28;;;5.00;;
54795;SDS011;40693;43.884;20.340;2023-05-29T12:11:29;6.03;;;4.70;;
54795;SDS011;40693;43.884;20.340;2023-05-29T12:13:58;5.93;;;5.40;;
54795;SDS011;40693;43.884;20.340;2023-05-29T12:18:55;6.18;;;4.68;;
54795;SDS011;40693;43.884;20.340;2023-05-29T12:21:21;7.65;;;4.75;;
54795;SDS011;40693;43.884;20.340;2023-05-29T12:23:51;5.90;;;4.95;;
54795;SDS011;40693;43.884;20.340;2023-05-29T12:26:18;7.25;;;5.15;;
54795;SDS011;40693;43.884;20.340;2023-05-29T12:28:46;7.07;;;4.68;;
54795;SDS011;40693;43.884;20.340;2023-05-29T12:31:13;8.85;;;5.95;;
54795;SDS011;40693;43.884;20.340;2023-05-29T12:33:42;6.38;;;4.38;;
54795;SDS011;40693;43.884;20.340;2023-05-29T12:36:09;6.82;;;4.78;;
54795;SDS011;40693;43.884;20.340;2023-05-29T12:38:49;6.18;;;5.13;;
54795;SDS011;40693;43.884;20.340;2023-05-29T12:41:27;8.27;;;5.25;;
54795;SDS011;40693;43.884;20.340;2023-05-29T12:43:54;7.78;;;4.95;;
54795;SDS011;40693;43.884;20.340;2023-05-29T12:46:23;6.43;;;4.72;;
54795;SDS011;40693;43.884;20.340;2023-05-29T12:48:52;11.43;;;5.55;;
54795;SDS011;40693;43.884;20.340;2023-05-29T12:51:24;7.70;;;5.03;;
54795;SDS011;40693;43.884;20.340;2023-05-29T12:53:52;11.50;;;5.68;;
54795;SDS011;40693;43.884;20.340;2023-05-29T12:56:20;6.43;;;4.88;;
54795;SDS011;40693;43.884;20.340;2023-05-29T12:58:51;5.80;;;4.47;;
54795;SDS011;40693;43.884;20.340;2023-05-29T13:01:18;10.40;;;5.57;;
54795;SDS011;40693;43.884;20.340;2023-05-29T13:03:45;6.32;;;4.65;;
54795;SDS011;40693;43.884;20.340;2023-05-29T13:06:11;6.82;;;4.25;;
54795;SDS011;40693;43.884;20.340;2023-05-29T13:08:37;5.85;;;4.28;;
54795;SDS011;40693;43.884;20.340;2023-05-29T13:11:03;5.07;;;4.07;;
54795;SDS011;40693;43.884;20.340;2023-05-29T13:13:29;4.90;;;4.32;;
54795;SDS011;40693;43.884;20.340;2023-05-29T13:15:55;5.22;;;4.13;;
54795;SDS011;40693;43.884;20.340;2023-05-29T13:18:21;6.32;;;3.65;;
54795;SDS011;40693;43.884;20.340;2023-05-29T13:20:46;5.88;;;4.53;;
54795;SDS011;40693;43.884;20.340;2023-05-29T13:23:12;8.35;;;4.55;;
54795;SDS011;40693;43.884;20.340;2023-05-29T13:25:38;6.70;;;4.97;;
54795;SDS011;40693;43.884;20.340;2023-05-29T13:28:03;7.05;;;4.78;;
54795;SDS011;40693;43.884;20.340;2023-05-29T13:30:29;5.22;;;4.13;;
54795;SDS011;40693;43.884;20.340;2023-05-29T13:32:55;6.05;;;4.70;;
54795;SDS011;40693;43.884;20.340;2023-05-29T13:35:21;5.32;;;4.50;;
54795;SDS011;40693;43.884;20.340;2023-05-29T13:37:51;6.38;;;5.03;;
54795;SDS011;40693;43.884;20.340;2023-05-29T13:40:19;7.50;;;4.38;;
54795;SDS011;40693;43.884;20.340;2023-05-29T13:42:44;7.63;;;4.85;;
54795;SDS011;40693;43.884;20.340;2023-05-29T13:45:10;8.07;;;5.43;;
54795;SDS011;40693;43.884;20.340;2023-05-29T13:47:37;6.82;;;4.50;;
54795;SDS011;40693;43.884;20.340;2023-05-29T13:50:03;5.18;;;4.22;;
54795;SDS011;40693;43.884;20.340;2023-05-29T13:52:29;5.55;;;4.25;;
54795;SDS011;40693;43.884;20.340;2023-05-29T13:54:54;7.90;;;4.60;;
54795;SDS011;40693;43.884;20.340;2023-05-29T13:57:20;6.65;;;3.63;;
54795;SDS011;40693;43.884;20.340;2023-05-29T13:59:46;5.30;;;3.90;;
54795;SDS011;40693;43.884;20.340;2023-05-29T14:02:11;6.03;;;4.80;;
54795;SDS011;40693;43.884;20.340;2023-05-29T14:04:37;6.15;;;4.72;;
54795;SDS011;40693;43.884;20.340;2023-05-29T14:07:04;7.82;;;5.22;;
54795;SDS011;40693;43.884;20.340;2023-05-29T14:09:31;5.07;;;4.03;;
54795;SDS011;40693;43.884;20.340;2023-05-29T14:11:58;10.30;;;4.05;;
54795;SDS011;40693;43.884;20.340;2023-05-29T14:14:27;6.50;;;4.47;;
54795;SDS011;40693;43.884;20.340;2023-05-29T14:16:53;5.25;;;4.20;;
54795;SDS011;40693;43.884;20.340;2023-05-29T14:19:19;16.88;;;5.10;;
54795;SDS011;40693;43.884;20.340;2023-05-29T14:21:46;10.85;;;4.63;;
54795;SDS011;40693;43.884;20.340;2023-05-29T14:24:12;10.05;;;5.57;;
54795;SDS011;40693;43.884;20.340;2023-05-29T14:26:38;7.43;;;5.45;;
54795;SDS011;40693;43.884;20.340;2023-05-29T14:29:04;16.33;;;4.95;;
54795;SDS011;40693;43.884;20.340;2023-05-29T14:31:31;9.40;;;5.53;;
54795;SDS011;40693;43.884;20.340;2023-05-29T14:33:56;6.43;;;4.78;;
54795;SDS011;40693;43.884;20.340;2023-05-29T14:36:22;7.43;;;4.93;;
54795;SDS011;40693;43.884;20.340;2023-05-29T14:38:48;6.68;;;4.25;;
54795;SDS011;40693;43.884;20.340;2023-05-29T14:41:14;5.88;;;3.65;;
54795;SDS011;40693;43.884;20.340;2023-05-29T14:43:41;8.10;;;3.80;;
54795;SDS011;40693;43.884;20.340;2023-05-29T14:46:08;9.65;;;5.10;;
54795;SDS011;40693;43.884;20.340;2023-05-29T14:48:34;11.30;;;5.32;;
54795;SDS011;40693;43.884;20.340;2023-05-29T14:51:00;6.53;;;4.13;;
54795;SDS011;40693;43.884;20.340;2023-05-29T14:53:27;11.35;;;4.15;;
54795;SDS011;40693;43.884;20.340;2023-05-29T14:55:52;11.32;;;5.88;;
54795;SDS011;40693;43.884;20.340;2023-05-29T14:58:20;7.95;;;4.65;;
54795;SDS011;40693;43.884;20.340;2023-05-29T15:00:46;8.95;;;5.32;;
54795;SDS011;40693;43.884;20.340;2023-05-29T15:03:12;6.80;;;4.40;;
54795;SDS011;40693;43.884;20.340;2023-05-29T15:05:38;9.82;;;4.82;;
54795;SDS011;40693;43.884;20.340;2023-05-29T15:08:03;9.07;;;4.50;;
54795;SDS011;40693;43.884;20.340;2023-05-29T15:10:29;10.52;;;5.68;;